sensor_id;sensor_type;location;lat;lon;timestamp;pressure;altitude;pressure_sealevel;temperature;humidity
2268;BME280;11052;43.338;25.502;2022-11-15T00:02:20;101481.91;;;9.55;100.00
2268;BME280;11052;43.338;25.502;2022-11-15T00:04:47;101475.88;;;9.54;100.00
2268;BME280;11052;43.338;25.502;2022-11-15T00:07:14;101477.66;;;9.52;100.00
2268;BME280;11052;43.338;25.502;2022-11-15T00:09:41;101471.56;;;9.53;100.00
2268;BME280;11052;43.338;25.502;2022-11-15T00:12:09;101475.06;;;9.52;100.00
2268;BME280;11052;43.338;25.502;2022-11-15T00:14:36;101479.31;;;9.55;100.00
2268;BME280;11052;43.338;25.502;2022-11-15T00:17:03;101476.72;;;9.57;100.00
2268;BME280;11052;43.338;25.502;2022-11-15T00:19:31;101475.97;;;9.47;100.00
2268;BME280;11052;43.338;25.502;2022-11-15T00:21:58;101474.22;;;9.47;100.00
2268;BME280;11052;43.338;25.502;2022-11-15T00:24:25;101477.72;;;9.40;100.00
2268;BME280;11052;43.338;25.502;2022-11-15T00:26:52;101469.94;;;9.42;100.00
2268;BME280;11052;43.338;25.502;2022-11-15T00:29:19;101474.25;;;9.43;100.00
2268;BME280;11052;43.338;25.502;2022-11-15T00:31:46;101470.00;;;9.31;100.00
2268;BME280;11052;43.338;25.502;2022-11-15T00:34:14;101466.63;;;9.23;100.00
2268;BME280;11052;43.338;25.502;2022-11-15T00:36:42;101462.25;;;9.30;100.00
2268;BME280;11052;43.338;25.502;2022-11-15T00:39:09;101456.22;;;9.31;100.00
2268;BME280;11052;43.338;25.502;2022-11-15T00:41:36;101455.44;;;9.18;100.00
2268;BME280;11052;43.338;25.502;2022-11-15T00:44:03;101458.91;;;9.14;100.00
2268;BME280;11052;43.338;25.502;2022-11-15T00:46:31;101454.59;;;9.13;100.00
2268;BME280;11052;43.338;25.502;2022-11-15T00:48:58;101456.31;;;9.12;100.00
2268;BME280;11052;43.338;25.502;2022-11-15T00:51:26;101448.53;;;9.15;100.00
2268;BME280;11052;43.338;25.502;2022-11-15T00:53:55;101447.69;;;9.15;100.00
2268;BME280;11052;43.338;25.502;2022-11-15T00:56:22;101440.81;;;9.12;100.00
2268;BME280;11052;43.338;25.502;2022-11-15T00:58:49;101439.16;;;9.01;100.00
2268;BME280;11052;43.338;25.502;2022-11-15T01:01:16;101441.75;;;8.96;100.00
2268;BME280;11052;43.338;25.502;2022-11-15T01:03:43;101438.31;;;8.97;100.00
2268;BME280;11052;43.338;25.502;2022-11-15T01:06:11;101432.31;;;8.87;100.00
2268;BME280;11052;43.338;25.502;2022-11-15T01:08:38;101435.72;;;8.94;100.00
2268;BME280;11052;43.338;25.502;2022-11-15T01:11:09;101439.16;;;9.01;100.00
2268;BME280;11052;43.338;25.502;2022-11-15T01:13:36;101438.28;;;9.02;100.00
2268;BME280;11052;43.338;25.502;2022-11-15T01:16:09;101427.97;;;8.94;100.00
2268;BME280;11052;43.338;25.502;2022-11-15T01:18:36;101436.59;;;8.92;100.00
2268;BME280;11052;43.338;25.502;2022-11-15T01:21:08;101430.56;;;8.96;100.00
2268;BME280;11052;43.338;25.502;2022-11-15T01:23:35;101432.25;;;9.01;100.00
2268;BME280;11052;43.338;25.502;2022-11-15T01:26:04;101429.69;;;8.95;100.00
2268;BME280;11052;43.338;25.502;2022-11-15T01:28:34;101427.09;;;9.00;100.00
2268;BME280;11052;43.338;25.502;2022-11-15T01:31:03;101427.97;;;8.96;100.00
2268;BME280;11052;43.338;25.502;2022-11-15T01:33:34;101421.88;;;9.03;100.00
2268;BME280;11052;43.338;25.502;2022-11-15T01:36:03;101422.81;;;8.90;100.00
2268;BME280;11052;43.338;25.502;2022-11-15T01:38:31;101421.94;;;8.94;100.00
2268;BME280;11052;43.338;25.502;2022-11-15T01:40:58;101424.50;;;8.97;100.00
2268;BME280;11052;43.338;25.502;2022-11-15T01:43:27;101419.38;;;8.91;100.00
2268;BME280;11052;43.338;25.502;2022-11-15T01:45:58;101429.72;;;8.91;100.00
2268;BME280;11052;43.338;25.502;2022-11-15T01:48:31;101433.13;;;8.96;100.00
2268;BME280;11052;43.338;25.502;2022-11-15T01:51:00;101427.97;;;8.96;100.00
2268;BME280;11052;43.338;25.502;2022-11-15T01:53:29;101425.38;;;8.94;100.00
2268;BME280;11052;43.338;25.502;2022-11-15T01:55:59;101422.78;;;8.96;100.00
2268;BME280;11052;43.338;25.502;2022-11-15T01:58:29;101425.41;;;8.93;100.00
2268;BME280;11052;43.338;25.502;2022-11-15T02:00:57;101420.16;;;9.05;100.00
2268;BME280;11052;43.338;25.502;2022-11-15T02:03:42;101415.09;;;8.83;100.00
2268;BME280;11052;43.338;25.502;2022-11-15T02:06:13;101422.78;;;8.99;100.00
2268;BME280;11052;43.338;25.502;2022-11-15T02:08:41;101414.22;;;8.86;100.00
2268;BME280;11052;43.338;25.502;2022-11-15T02:11:09;101415.03;;;8.96;100.00
2268;BME280;11052;43.338;25.502;2022-11-15T02:13:36;101417.66;;;8.90;100.00
2268;BME280;11052;43.338;25.502;2022-11-15T02:16:11;101408.19;;;8.85;100.00
2268;BME280;11052;43.338;25.502;2022-11-15T02:18:46;101409.97;;;8.76;100.00
2268;BME280;11052;43.338;25.502;2022-11-15T02:21:21;101414.28;;;8.75;100.00
2268;BME280;11052;43.338;25.502;2022-11-15T02:24:23;101408.22;;;8.79;100.00
2268;BME280;11052;43.338;25.502;2022-11-15T02:27:27;101405.63;;;8.84;100.00
2268;BME280;11052;43.338;25.502;2022-11-15T02:30:36;101411.63;;;8.91;100.00
2268;BME280;11052;43.338;25.502;2022-11-15T02:33:12;101403.84;;;8.95;100.00
2268;BME280;11052;43.338;25.502;2022-11-15T02:35:47;101407.28;;;8.96;100.00
2268;BME280;11052;43.338;25.502;2022-11-15T02:38:24;101411.53;;;9.06;100.00
2268;BME280;11052;43.338;25.502;2022-11-15T02:40:58;101398.63;;;9.01;100.00
2268;BME280;11052;43.338;25.502;2022-11-15T02:43:31;101403.78;;;9.06;100.00
2268;BME280;11052;43.338;25.502;2022-11-15T02:46:22;101402.09;;;8.96;100.00
2268;BME280;11052;43.338;25.502;2022-11-15T02:49:12;101399.44;;;9.09;100.00
2268;BME280;11052;43.338;25.502;2022-11-15T02:51:41;101402.13;;;8.93;100.00
2268;BME280;11052;43.338;25.502;2022-11-15T02:54:12;101391.78;;;8.90;100.00
2268;BME280;11052;43.338;25.502;2022-11-15T02:56:40;101393.47;;;8.95;100.00
2268;BME280;11052;43.338;25.502;2022-11-15T02:59:17;101389.16;;;8.99;100.00
2268;BME280;11052;43.338;25.502;2022-11-15T03:01:56;101397.81;;;8.90;100.00
2268;BME280;11052;43.338;25.502;2022-11-15T03:04:36;101403.84;;;8.91;100.00
2268;BME280;11052;43.338;25.502;2022-11-15T03:07:14;101396.09;;;8.92;100.00
2268;BME280;11052;43.338;25.502;2022-11-15T03:09:49;101386.53;;;9.03;100.00
2268;BME280;11052;43.338;25.502;2022-11-15T03:12:24;101386.66;;;8.80;100.00
2268;BME280;11052;43.338;25.502;2022-11-15T03:14:54;101385.84;;;8.72;100.00
2268;BME280;11052;43.338;25.502;2022-11-15T03:17:28;101384.09;;;8.80;100.00
2268;BME280;11052;43.338;25.502;2022-11-15T03:19:57;101380.69;;;8.68;100.00
2268;BME280;11052;43.338;25.502;2022-11-15T03:22:28;101383.25;;;8.72;100.00
2268;BME280;11052;43.338;25.502;2022-11-15T03:24:59;101385.84;;;8.74;100.00
2268;BME280;11052;43.338;25.502;2022-11-15T03:27:30;101393.69;;;8.65;100.00
2268;BME280;11052;43.338;25.502;2022-11-15T03:30:02;101384.13;;;8.73;100.00
2268;BME280;11052;43.338;25.502;2022-11-15T03:32:35;101385.06;;;8.64;100.00
2268;BME280;11052;43.338;25.502;2022-11-15T03:35:06;101384.22;;;8.59;100.00
2268;BME280;11052;43.338;25.502;2022-11-15T03:37:39;101385.06;;;8.61;100.00
2268;BME280;11052;43.338;25.502;2022-11-15T03:40:08;101384.97;;;8.75;100.00
2268;BME280;11052;43.338;25.502;2022-11-15T03:42:39;101376.38;;;8.71;100.00
2268;BME280;11052;43.338;25.502;2022-11-15T03:45:15;101373.81;;;8.67;100.00
2268;BME280;11052;43.338;25.502;2022-11-15T03:47:49;101369.47;;;8.72;100.00
2268;BME280;11052;43.338;25.502;2022-11-15T03:50:21;101367.84;;;8.62;100.00
2268;BME280;11052;43.338;25.502;2022-11-15T03:52:50;101363.56;;;8.58;100.00
2268;BME280;11052;43.338;25.502;2022-11-15T03:55:18;101363.56;;;8.58;100.00
2268;BME280;11052;43.338;25.502;2022-11-15T03:57:46;101354.84;;;8.68;100.00
2268;BME280;11052;43.338;25.502;2022-11-15T04:00:15;101353.25;;;8.53;100.00
2268;BME280;11052;43.338;25.502;2022-11-15T04:02:42;101356.72;;;8.46;100.00
2268;BME280;11052;43.338;25.502;2022-11-15T04:05:11;101358.47;;;8.38;100.00
2268;BME280;11052;43.338;25.502;2022-11-15T04:07:38;101359.25;;;8.55;100.00
2268;BME280;11052;43.338;25.502;2022-11-15T04:10:06;101362.75;;;8.45;100.00
2268;BME280;11052;43.338;25.502;2022-11-15T04:12:35;101362.75;;;8.42;100.00
2268;BME280;11052;43.338;25.502;2022-11-15T04:15:04;101351.59;;;8.35;100.00
2268;BME280;11052;43.338;25.502;2022-11-15T04:17:36;101354.13;;;8.43;100.00
2268;BME280;11052;43.338;25.502;2022-11-15T04:20:04;101351.53;;;8.47;100.00
2268;BME280;11052;43.338;25.502;2022-11-15T04:22:52;101351.53;;;8.49;100.00
2268;BME280;11052;43.338;25.502;2022-11-15T04:25:36;101341.22;;;8.43;100.00
2268;BME280;11052;43.338;25.502;2022-11-15T04:28:03;101338.63;;;8.46;100.00
2268;BME280;11052;43.338;25.502;2022-11-15T04:30:31;101344.63;;;8.56;100.00
2268;BME280;11052;43.338;25.502;2022-11-15T04:32:58;101349.75;;;8.63;100.00
2268;BME280;11052;43.338;25.502;2022-11-15T04:35:25;101348.88;;;8.63;100.00
2268;BME280;11052;43.338;25.502;2022-11-15T04:37:53;101354.91;;;8.62;100.00
2268;BME280;11052;43.338;25.502;2022-11-15T04:40:19;101349.75;;;8.62;100.00
2268;BME280;11052;43.338;25.502;2022-11-15T04:42:47;101340.25;;;8.64;100.00
2268;BME280;11052;43.338;25.502;2022-11-15T04:45:14;101344.56;;;8.66;100.00
2268;BME280;11052;43.338;25.502;2022-11-15T04:47:43;101345.44;;;8.65;100.00
2268;BME280;11052;43.338;25.502;2022-11-15T04:50:10;101344.56;;;8.66;100.00
2268;BME280;11052;43.338;25.502;2022-11-15T04:52:39;101344.50;;;8.71;100.00
2268;BME280;11052;43.338;25.502;2022-11-15T04:55:09;101349.66;;;8.71;100.00
2268;BME280;11052;43.338;25.502;2022-11-15T04:57:36;101349.72;;;8.65;100.00
2268;BME280;11052;43.338;25.502;2022-11-15T05:00:06;101346.22;;;8.72;100.00
2268;BME280;11052;43.338;25.502;2022-11-15T05:02:33;101347.06;;;8.74;100.00
2268;BME280;11052;43.338;25.502;2022-11-15T05:05:14;101347.94;;;8.70;100.00
2268;BME280;11052;43.338;25.502;2022-11-15T05:07:41;101351.41;;;8.69;100.00
2268;BME280;11052;43.338;25.502;2022-11-15T05:10:10;101344.50;;;8.72;100.00
2268;BME280;11052;43.338;25.502;2022-11-15T05:12:37;101342.72;;;8.79;100.00
2268;BME280;11052;43.338;25.502;2022-11-15T05:15:05;101347.03;;;8.80;100.00
2268;BME280;11052;43.338;25.502;2022-11-15T05:17:33;101350.47;;;8.82;100.00
2268;BME280;11052;43.338;25.502;2022-11-15T05:20:00;101351.38;;;8.76;100.00
2268;BME280;11052;43.338;25.502;2022-11-15T05:22:27;101345.34;;;8.71;100.00
2268;BME280;11052;43.338;25.502;2022-11-15T05:24:54;101349.69;;;8.69;100.00
2268;BME280;11052;43.338;25.502;2022-11-15T05:27:22;101346.19;;;8.76;100.00
2268;BME280;11052;43.338;25.502;2022-11-15T05:29:49;101346.22;;;8.72;100.00
2268;BME280;11052;43.338;25.502;2022-11-15T05:32:17;101345.34;;;8.74;100.00
2268;BME280;11052;43.338;25.502;2022-11-15T05:34:45;101354.00;;;8.67;100.00
2268;BME280;11052;43.338;25.502;2022-11-15T05:37:12;101353.09;;;8.76;100.00
2268;BME280;11052;43.338;25.502;2022-11-15T05:39:40;101354.81;;;8.78;100.00
2268;BME280;11052;43.338;25.502;2022-11-15T05:42:09;101362.59;;;8.69;100.00
2268;BME280;11052;43.338;25.502;2022-11-15T05:44:40;101360.03;;;8.68;100.00
2268;BME280;11052;43.338;25.502;2022-11-15T05:47:10;101359.16;;;8.70;100.00
2268;BME280;11052;43.338;25.502;2022-11-15T05:49:40;101355.69;;;8.71;100.00
2268;BME280;11052;43.338;25.502;2022-11-15T05:52:13;101352.22;;;8.77;100.00
2268;BME280;11052;43.338;25.502;2022-11-15T05:54:41;101351.31;;;8.82;100.00
2268;BME280;11052;43.338;25.502;2022-11-15T05:57:09;101354.81;;;8.78;100.00
2268;BME280;11052;43.338;25.502;2022-11-15T05:59:37;101355.66;;;8.77;100.00
2268;BME280;11052;43.338;25.502;2022-11-15T06:02:06;101351.34;;;8.78;100.00
2268;BME280;11052;43.338;25.502;2022-11-15T06:04:33;101354.81;;;8.78;100.00
2268;BME280;11052;43.338;25.502;2022-11-15T06:07:00;101359.06;;;8.85;100.00
2268;BME280;11052;43.338;25.502;2022-11-15T06:09:27;101355.63;;;8.85;100.00
2268;BME280;11052;43.338;25.502;2022-11-15T06:11:54;101359.06;;;8.88;100.00
2268;BME280;11052;43.338;25.502;2022-11-15T06:14:21;101365.94;;;8.91;100.00
2268;BME280;11052;43.338;25.502;2022-11-15T06:16:50;101363.41;;;8.82;100.00
2268;BME280;11052;43.338;25.502;2022-11-15T06:19:17;101360.78;;;8.85;100.00
2268;BME280;11052;43.338;25.502;2022-11-15T06:21:44;101365.06;;;8.89;100.00
2268;BME280;11052;43.338;25.502;2022-11-15T06:24:11;101370.22;;;8.92;100.00
2268;BME280;11052;43.338;25.502;2022-11-15T06:26:38;101368.50;;;8.93;100.00
2268;BME280;11052;43.338;25.502;2022-11-15T06:29:05;101368.50;;;8.96;100.00
2268;BME280;11052;43.338;25.502;2022-11-15T06:31:33;101367.59;;;9.00;100.00
2268;BME280;11052;43.338;25.502;2022-11-15T06:34:02;101377.94;;;9.03;100.00
2268;BME280;11052;43.338;25.502;2022-11-15T06:36:29;101371.91;;;9.02;100.00
2268;BME280;11052;43.338;25.502;2022-11-15T06:38:56;101372.78;;;8.97;100.00
2268;BME280;11052;43.338;25.502;2022-11-15T06:41:23;101374.53;;;8.92;100.00
2268;BME280;11052;43.338;25.502;2022-11-15T06:43:51;101370.22;;;8.94;100.00
2268;BME280;11052;43.338;25.502;2022-11-15T06:46:18;101374.50;;;9.01;100.00
2268;BME280;11052;43.338;25.502;2022-11-15T06:48:45;101376.25;;;8.96;100.00
2268;BME280;11052;43.338;25.502;2022-11-15T06:51:13;101367.56;;;9.04;100.00
2268;BME280;11052;43.338;25.502;2022-11-15T06:53:40;101367.53;;;9.12;100.00
2268;BME280;11052;43.338;25.502;2022-11-15T06:56:07;101365.78;;;9.14;100.00
2268;BME280;11052;43.338;25.502;2022-11-15T06:58:35;101364.88;;;9.18;100.00
2268;BME280;11052;43.338;25.502;2022-11-15T07:01:05;101360.53;;;9.23;100.00
2268;BME280;11052;43.338;25.502;2022-11-15T07:03:34;101369.22;;;9.16;100.00
2268;BME280;11052;43.338;25.502;2022-11-15T07:06:02;101364.09;;;9.08;100.00
2268;BME280;11052;43.338;25.502;2022-11-15T07:08:30;101358.00;;;9.17;100.00
2268;BME280;11052;43.338;25.502;2022-11-15T07:10:58;101356.34;;;9.07;100.00
2268;BME280;11052;43.338;25.502;2022-11-15T07:13:27;101358.94;;;9.07;100.00
2268;BME280;11052;43.338;25.502;2022-11-15T07:15:55;101355.50;;;9.06;100.00
2268;BME280;11052;43.338;25.502;2022-11-15T07:18:22;101355.44;;;9.12;100.00
2268;BME280;11052;43.338;25.502;2022-11-15T07:20:49;101358.88;;;9.13;100.00
2268;BME280;11052;43.338;25.502;2022-11-15T07:23:16;101351.13;;;9.14;100.00
2268;BME280;11052;43.338;25.502;2022-11-15T07:25:45;101355.44;;;9.15;100.00
2268;BME280;11052;43.338;25.502;2022-11-15T07:28:12;101352.84;;;9.15;100.00
2268;BME280;11052;43.338;25.502;2022-11-15T07:30:39;101357.09;;;9.21;100.00
2268;BME280;11052;43.338;25.502;2022-11-15T07:33:06;101353.69;;;9.17;100.00
2268;BME280;11052;43.338;25.502;2022-11-15T07:35:33;101346.88;;;9.06;100.00
2268;BME280;11052;43.338;25.502;2022-11-15T07:38:01;101348.56;;;9.10;100.00
2268;BME280;11052;43.338;25.502;2022-11-15T07:40:30;101352.88;;;9.11;100.00
2268;BME280;11052;43.338;25.502;2022-11-15T07:43:03;101347.66;;;9.15;100.00
2268;BME280;11052;43.338;25.502;2022-11-15T07:45:31;101340.72;;;9.20;100.00
2268;BME280;11052;43.338;25.502;2022-11-15T07:48:00;101351.97;;;9.16;100.00
2268;BME280;11052;43.338;25.502;2022-11-15T07:50:27;101339.88;;;9.17;100.00
2268;BME280;11052;43.338;25.502;2022-11-15T07:52:55;101346.78;;;9.18;100.00
2268;BME280;11052;43.338;25.502;2022-11-15T07:55:23;101339.91;;;9.15;100.00
2268;BME280;11052;43.338;25.502;2022-11-15T07:57:50;101337.25;;;9.25;100.00
2268;BME280;11052;43.338;25.502;2022-11-15T08:00:19;101343.28;;;9.24;100.00
2268;BME280;11052;43.338;25.502;2022-11-15T08:02:46;101343.25;;;9.30;100.00
2268;BME280;11052;43.338;25.502;2022-11-15T08:05:13;101339.78;;;9.32;100.00
2268;BME280;11052;43.338;25.502;2022-11-15T08:07:40;101334.56;;;9.37;100.00
2268;BME280;11052;43.338;25.502;2022-11-15T08:10:08;101331.97;;;9.37;100.00
2268;BME280;11052;43.338;25.502;2022-11-15T08:12:37;101336.31;;;9.32;100.00
2268;BME280;11052;43.338;25.502;2022-11-15T08:15:05;101332.88;;;9.33;100.00
2268;BME280;11052;43.338;25.502;2022-11-15T08:17:33;101326.81;;;9.34;100.00
2268;BME280;11052;43.338;25.502;2022-11-15T08:20:00;101325.13;;;9.30;100.00
2268;BME280;11052;43.338;25.502;2022-11-15T08:22:28;101319.97;;;9.30;100.00
2268;BME280;11052;43.338;25.502;2022-11-15T08:24:56;101329.63;;;9.06;100.00
2268;BME280;11052;43.338;25.502;2022-11-15T08:27:23;101323.56;;;9.10;100.00
2268;BME280;11052;43.338;25.502;2022-11-15T08:29:50;101316.63;;;9.14;100.00
2268;BME280;11052;43.338;25.502;2022-11-15T08:32:17;101318.28;;;9.24;100.00
2268;BME280;11052;43.338;25.502;2022-11-15T08:34:45;101323.41;;;9.29;100.00
2268;BME280;11052;43.338;25.502;2022-11-15T08:37:13;101316.41;;;9.40;100.00
2268;BME280;11052;43.338;25.502;2022-11-15T08:39:40;101310.44;;;9.32;100.00
2268;BME280;11052;43.338;25.502;2022-11-15T08:42:07;101306.94;;;9.40;100.00
2268;BME280;11052;43.338;25.502;2022-11-15T08:44:34;101304.28;;;9.46;100.00
2268;BME280;11052;43.338;25.502;2022-11-15T08:47:01;101302.59;;;9.42;100.00
2268;BME280;11052;43.338;25.502;2022-11-15T08:49:28;101300.00;;;9.42;100.00
2268;BME280;11052;43.338;25.502;2022-11-15T08:51:57;101295.59;;;9.52;100.00
2268;BME280;11052;43.338;25.502;2022-11-15T08:54:24;101296.34;;;9.62;100.00
2268;BME280;11052;43.338;25.502;2022-11-15T08:56:51;101299.81;;;9.59;100.00
2268;BME280;11052;43.338;25.502;2022-11-15T08:59:18;101295.50;;;9.60;100.00
2268;BME280;11052;43.338;25.502;2022-11-15T09:01:45;101296.34;;;9.62;100.00
2268;BME280;11052;43.338;25.502;2022-11-15T09:04:12;101285.06;;;9.69;100.00
2268;BME280;11052;43.338;25.502;2022-11-15T09:06:39;101285.94;;;9.68;100.00
2268;BME280;11052;43.338;25.502;2022-11-15T09:09:08;101269.47;;;9.72;100.00
2268;BME280;11052;43.338;25.502;2022-11-15T09:11:35;101265.25;;;9.65;100.00
2268;BME280;11052;43.338;25.502;2022-11-15T09:14:03;101263.59;;;9.56;100.00
2268;BME280;11052;43.338;25.502;2022-11-15T09:16:30;101257.59;;;9.54;100.00
2268;BME280;11052;43.338;25.502;2022-11-15T09:18:57;101260.09;;;9.62;100.00
2268;BME280;11052;43.338;25.502;2022-11-15T09:21:24;101257.44;;;9.68;100.00
2268;BME280;11052;43.338;25.502;2022-11-15T09:23:52;101254.91;;;9.62;100.00
2268;BME280;11052;43.338;25.502;2022-11-15T09:26:20;101247.19;;;9.60;100.00
2268;BME280;11052;43.338;25.502;2022-11-15T09:28:48;101243.63;;;9.69;100.00
2268;BME280;11052;43.338;25.502;2022-11-15T09:31:15;101239.28;;;9.71;100.00
2268;BME280;11052;43.338;25.502;2022-11-15T09:33:43;101239.25;;;9.75;100.00
2268;BME280;11052;43.338;25.502;2022-11-15T09:36:10;101240.06;;;9.79;100.00
2268;BME280;11052;43.338;25.502;2022-11-15T09:38:38;101236.56;;;9.83;100.00
2268;BME280;11052;43.338;25.502;2022-11-15T09:41:31;101237.41;;;9.83;100.00
2268;BME280;11052;43.338;25.502;2022-11-15T09:44:10;101239.22;;;9.77;100.00
2268;BME280;11052;43.338;25.502;2022-11-15T09:46:48;101235.66;;;9.85;100.00
2268;BME280;11052;43.338;25.502;2022-11-15T09:49:19;101229.63;;;9.85;100.00
2268;BME280;11052;43.338;25.502;2022-11-15T09:51:49;101225.47;;;9.72;100.00
2268;BME280;11052;43.338;25.502;2022-11-15T09:54:26;101220.28;;;9.73;100.00
2268;BME280;11052;43.338;25.502;2022-11-15T09:56:56;101213.38;;;9.74;100.00
2268;BME280;11052;43.338;25.502;2022-11-15T09:59:39;101209.03;;;9.74;100.00
2268;BME280;11052;43.338;25.502;2022-11-15T10:02:19;101208.25;;;9.68;100.00
2268;BME280;11052;43.338;25.502;2022-11-15T10:04:50;101202.16;;;9.73;100.00
2268;BME280;11052;43.338;25.502;2022-11-15T10:07:22;101193.47;;;9.77;100.00
2268;BME280;11052;43.338;25.502;2022-11-15T10:09:53;101193.44;;;9.80;100.00
2268;BME280;11052;43.338;25.502;2022-11-15T10:12:25;101189.91;;;9.86;100.00
2268;BME280;11052;43.338;25.502;2022-11-15T10:15:02;101185.69;;;9.77;100.00
2268;BME280;11052;43.338;25.502;2022-11-15T10:18:14;101187.53;;;9.69;100.00
2268;BME280;11052;43.338;25.502;2022-11-15T10:20:47;101179.69;;;9.75;100.00
2268;BME280;11052;43.338;25.502;2022-11-15T10:23:17;101173.66;;;9.75;100.00
2268;BME280;11052;43.338;25.502;2022-11-15T10:25:45;101175.28;;;9.83;100.00
2268;BME280;11052;43.338;25.502;2022-11-15T10:28:16;101172.56;;;9.93;100.00
2268;BME280;11052;43.338;25.502;2022-11-15T10:30:45;101169.78;;;10.06;100.00
2268;BME280;11052;43.338;25.502;2022-11-15T10:33:22;101157.59;;;10.13;100.00
2268;BME280;11052;43.338;25.502;2022-11-15T10:36:14;101155.03;;;10.11;100.00
2268;BME280;11052;43.338;25.502;2022-11-15T10:39:02;101150.72;;;10.12;100.00
2268;BME280;11052;43.338;25.502;2022-11-15T10:41:32;101149.19;;;9.97;100.00
2268;BME280;11052;43.338;25.502;2022-11-15T10:44:24;101151.75;;;10.00;100.00
2268;BME280;11052;43.338;25.502;2022-11-15T10:47:20;101147.56;;;9.89;100.00
2268;BME280;11052;43.338;25.502;2022-11-15T10:49:59;101152.56;;;10.04;100.00
2268;BME280;11052;43.338;25.502;2022-11-15T10:52:28;101146.59;;;9.97;100.00
2268;BME280;11052;43.338;25.502;2022-11-15T10:55:00;101140.28;;;10.16;100.00
2268;BME280;11052;43.338;25.502;2022-11-15T10:57:31;101138.56;;;10.15;100.00
2268;BME280;11052;43.338;25.502;2022-11-15T11:00:04;101135.91;;;10.22;100.00
2268;BME280;11052;43.338;25.502;2022-11-15T11:02:35;101136.78;;;10.22;100.00
2268;BME280;11052;43.338;25.502;2022-11-15T11:05:05;101136.84;;;10.14;100.00
2268;BME280;11052;43.338;25.502;2022-11-15T11:07:34;101131.50;;;10.28;100.00
2268;BME280;11052;43.338;25.502;2022-11-15T11:10:04;101128.81;;;10.34;100.00
2268;BME280;11052;43.338;25.502;2022-11-15T11:12:33;101127.03;;;10.38;100.00
2268;BME280;11052;43.338;25.502;2022-11-15T11:15:10;101124.41;;;10.39;100.00
2268;BME280;11052;43.338;25.502;2022-11-15T11:17:50;101125.16;;;10.44;100.00
2268;BME280;11052;43.338;25.502;2022-11-15T11:20:22;101115.53;;;10.52;100.00
2268;BME280;11052;43.338;25.502;2022-11-15T11:23:03;101111.25;;;10.50;100.00
2268;BME280;11052;43.338;25.502;2022-11-15T11:25:34;101108.59;;;10.53;100.00
2268;BME280;11052;43.338;25.502;2022-11-15T11:28:18;101105.97;;;10.55;100.00
2268;BME280;11052;43.338;25.502;2022-11-15T11:30:57;101110.25;;;10.57;100.00
2268;BME280;11052;43.338;25.502;2022-11-15T11:33:31;101102.44;;;10.60;100.00
2268;BME280;11052;43.338;25.502;2022-11-15T11:36:11;101090.28;;;10.64;100.00
2268;BME280;11052;43.338;25.502;2022-11-15T11:38:58;101085.03;;;10.67;100.00
2268;BME280;11052;43.338;25.502;2022-11-15T11:41:42;101084.16;;;10.68;100.00
2268;BME280;11052;43.338;25.502;2022-11-15T11:44:21;101084.19;;;10.66;100.00
2268;BME280;11052;43.338;25.502;2022-11-15T11:46:55;101079.03;;;10.65;100.00
2268;BME280;11052;43.338;25.502;2022-11-15T11:49:29;101081.50;;;10.71;100.00
2268;BME280;11052;43.338;25.502;2022-11-15T11:52:02;101069.41;;;10.71;100.00
2268;BME280;11052;43.338;25.502;2022-11-15T11:54:42;101064.97;;;10.76;100.00
2268;BME280;11052;43.338;25.502;2022-11-15T11:57:16;101065.81;;;10.78;100.00
2268;BME280;11052;43.338;25.502;2022-11-15T11:59:48;101070.09;;;10.79;100.00
2268;BME280;11052;43.338;25.502;2022-11-15T12:02:24;101064.22;;;10.71;100.00
2268;BME280;11052;43.338;25.502;2022-11-15T12:05:01;101061.66;;;10.68;100.00
2268;BME280;11052;43.338;25.502;2022-11-15T12:07:32;101058.88;;;10.79;100.00
2268;BME280;11052;43.338;25.502;2022-11-15T12:10:05;101053.66;;;10.80;100.00
2268;BME280;11052;43.338;25.502;2022-11-15T12:12:46;101045.22;;;10.69;100.00
2268;BME280;11052;43.338;25.502;2022-11-15T12:15:18;101040.00;;;10.72;100.00
2268;BME280;11052;43.338;25.502;2022-11-15T12:17:48;101040.06;;;10.68;100.00
2268;BME280;11052;43.338;25.502;2022-11-15T12:20:17;101034.91;;;10.66;100.00
2268;BME280;11052;43.338;25.502;2022-11-15T12:22:52;101034.03;;;10.67;100.00
2268;BME280;11052;43.338;25.502;2022-11-15T12:25:23;101032.34;;;10.65;100.00
2268;BME280;11052;43.338;25.502;2022-11-15T12:27:57;101027.38;;;10.52;100.00
2268;BME280;11052;43.338;25.502;2022-11-15T12:30:42;101026.63;;;10.47;100.00
2268;BME280;11052;43.338;25.502;2022-11-15T12:33:31;101022.56;;;10.34;100.00
2268;BME280;11052;43.338;25.502;2022-11-15T12:36:00;101008.81;;;10.31;100.00
2268;BME280;11052;43.338;25.502;2022-11-15T12:38:54;101007.13;;;10.27;100.00
2268;BME280;11052;43.338;25.502;2022-11-15T12:41:23;101009.84;;;10.21;100.00
2268;BME280;11052;43.338;25.502;2022-11-15T12:43:51;101006.38;;;10.18;100.00
2268;BME280;11052;43.338;25.502;2022-11-15T12:49:47;101001.06;;;10.28;100.00
2268;BME280;11052;43.338;25.502;2022-11-15T12:52:15;101006.44;;;10.15;100.00
2268;BME280;11052;43.338;25.502;2022-11-15T12:54:57;101008.81;;;10.31;100.00
2268;BME280;11052;43.338;25.502;2022-11-15T12:57:31;100997.59;;;10.29;100.00
2268;BME280;11052;43.338;25.502;2022-11-15T13:00:00;100998.31;;;10.37;100.00
2268;BME280;11052;43.338;25.502;2022-11-15T13:02:30;101005.31;;;10.32;100.00
2268;BME280;11052;43.338;25.502;2022-11-15T13:08:00;100998.31;;;10.37;100.00
2268;BME280;11052;43.338;25.502;2022-11-15T13:10:32;100998.94;;;10.49;100.00
2268;BME280;11052;43.338;25.502;2022-11-15T13:13:01;100996.47;;;10.42;100.00
2268;BME280;11052;43.338;25.502;2022-11-15T13:15:53;100994.00;;;10.37;100.00